• Join FlightAware (Why Join?)
  • Login
  • US Flag 
10:09PM EDT


 

Airport Tracker/Info


-or-


 

Live Flight TrackerFlight Track Log ✈ N989AS ✈ 15-Jun-2013 ✈ KMCD - KYIP

Flight Track Log - Related Links

Times and Time Zones

All times are in EDT time to prevent confusion due to time zone crossing. See the N989AS flight status page for this flight to view local times or setup timezone preferences in your user account.

Time Position Orientation Groundspeed Altitude Reporting Facility
EDT Latitude Longitude Course Direction KTS MPH feet Rate Location/Type
03:04PM 45.7528 -84.7108 168° South 75 86 3,600  Level Minneapolis Center
03:05PM 45.7303 -84.7183 193° South 83 96 4,100 480 Climbing Minneapolis Center
03:06PM 45.7033 -84.7086 166° South 94 108 4,700 420 Climbing Minneapolis Center
03:07PM 45.6337 -84.5622 170° South  Level Estimated
03:07PM 45.6797 -84.6939 156° South 95 109 5,000  Level Minneapolis Center
03:08PM 45.5951 -84.5498 168° South  Level Estimated
03:08PM 45.6442 -84.6761 161° South 126 145 5,000  Level Minneapolis Center
03:09PM 45.5589 -84.5389 168° South  Level FlightAware Approximate
03:09PM 45.6089 -84.6639 166° South 131 151 5,000  Level Minneapolis Center
03:10PM 45.5697 -84.6508 167° South 134 154 5,000  Level Minneapolis Center
03:11PM 45.5331 -84.6375 166° South 137 158 5,000  Level Minneapolis Center
03:12PM 45.4983 -84.6250 166° South 132 152 5,000  Level Minneapolis Center
03:13PM 45.4597 -84.6103 165° South 133 153 5,000  Level Minneapolis Center
03:14PM 45.4244 -84.5989 167° South 133 153 5,000  Level Minneapolis Center
03:15PM 45.3853 -84.5867 168° South 135 155 5,000  Level Minneapolis Center
03:16PM 45.3511 -84.5744 166° South 130 150 5,000  Level Minneapolis Center
03:17PM 45.3133 -84.5617 167° South 129 148 5,000  Level Minneapolis Center
03:18PM 45.2772 -84.5472 164° South 135 155 5,000  Level Minneapolis Center
03:19PM 45.2394 -84.5344 167° South 132 152 5,000  Level Minneapolis Center
03:20PM 45.2047 -84.5222 166° South 131 151 5,000 -60 Level Minneapolis Center
03:21PM 45.1664 -84.5106 168° South 132 152 4,900  Descending Minneapolis Center
03:22PM 45.1308 -84.4975 165° South 132 152 5,000  Climbing Minneapolis Center
03:23PM 45.0933 -84.4831 165° South 132 152 5,000  Level Minneapolis Center
03:24PM 45.0575 -84.4714 167° South 134 154 5,000  Level Minneapolis Center
03:25PM 45.0228 -84.4592 166° South 131 151 5,000  Level Minneapolis Center
03:26PM 44.9853 -84.4464 166° South 130 150 5,000  Level Minneapolis Center
03:27PM 44.9408 -84.4311 166° South 133 153 5,000  Level Minneapolis Center
03:29PM 44.8989 -84.4169 167° South 127 146 5,000  Level Minneapolis Center
03:30PM 44.8642 -84.4047 166° South 130 150 5,000  Level Minneapolis Center
03:31PM 44.8244 -84.3914 167° South 135 155 5,000  Level Minneapolis Center
03:32PM 44.7878 -84.3772 165° South 138 159 5,000  Level Minneapolis Center
03:33PM 44.7506 -84.3650 167° South 130 150 5,000  Level Minneapolis Center
03:34PM 44.7136 -84.3531 167° South 136 157 5,000  Level Minneapolis Center
03:35PM 44.6786 -84.3411 166° South 132 152 5,000  Level Minneapolis Center
03:36PM 44.6403 -84.3281 166° South 133 153 5,000 -60 Level Minneapolis Center
03:37PM 44.6106 -84.3197 169° South 131 151 4,900  Descending Minneapolis Center
03:38PM 44.5669 -84.3033 165° South 132 152 5,000  Climbing Minneapolis Center
03:39PM 44.5317 -84.2903 165° South 133 153 5,000  Level Minneapolis Center
03:40PM 44.4928 -84.2775 167° South 134 154 5,100  Climbing Minneapolis Center
03:41PM 44.4569 -84.2658 167° South 133 153 5,100  Level Minneapolis Center
03:42PM 44.4164 -84.2533 168° South 138 159 5,100 -60 Level Minneapolis Center
03:43PM 44.3819 -84.2406 165° South 132 152 5,000  Descending Minneapolis Center
03:44PM 44.3467 -84.2289 167° South 132 152 5,100  Climbing Minneapolis Center
03:45PM 44.3078 -84.2156 166° South 135 155 5,100  Level Minneapolis Center
03:46PM 44.2722 -84.2036 166° South 133 153 5,100  Level Minneapolis Center
03:47PM 44.2347 -84.1917 167° South 129 148 5,100  Level Minneapolis Center
03:48PM 44.1906 -84.1769 167° South 132 152 5,100  Level Minneapolis Center
03:49PM 44.1544 -84.1636 165° South 134 154 5,100  Level Minneapolis Center
03:50PM 44.1194 -84.1519 167° South 132 152 5,100  Level Minneapolis Center
03:51PM 44.0814 -84.1406 168° South 131 151 5,100  Level Minneapolis Center
03:52PM 44.0447 -84.1281 166° South 135 155 5,100  Level Minneapolis Center
03:53PM 44.0067 -84.1158 167° South 132 152 5,100  Level Minneapolis Center
03:54PM 43.9775 -84.1047 165° South 132 152 5,100  Level Minneapolis Center
03:56PM 43.9405 -84.0913 165° South  Level FlightAware Approximate
04:03PM 43.6897 -84.0012 165° South  Level FlightAware Approximate
04:04PM 43.6538 -83.9884 165° South  Level FlightAware Approximate
04:05PM 43.6180 -83.9756 166° South  Level FlightAware Approximate
04:06PM 43.5821 -83.9628 166° South  Level FlightAware Approximate
04:07PM 43.5463 -83.9500 166° South  Level FlightAware Approximate
04:08PM 43.5104 -83.9373 166° South  Level FlightAware Approximate
04:09PM 43.4746 -83.9246 166° South  Level FlightAware Approximate
04:10PM 43.4388 -83.9118 166° South  Level FlightAware Approximate
04:11PM 43.4029 -83.8991 166° South  Level FlightAware Approximate
04:12PM 43.3671 -83.8864 166° South  Level FlightAware Approximate
04:13PM 43.3312 -83.8737 166° South  Level FlightAware Approximate
04:14PM 43.2953 -83.8611 166° South  Level FlightAware Approximate
04:15PM 43.2595 -83.8484 166° South  Level FlightAware Approximate
04:16PM 43.2236 -83.8358 166° South  Level FlightAware Approximate
04:17PM 43.1866 -83.8254 169° South  Level FlightAware Approximate
04:18PM 43.1502 -83.8159 169° South  Level FlightAware Approximate
04:19PM 43.1138 -83.8064 169° South  Level FlightAware Approximate
04:20PM 43.0775 -83.7969 169° South  Level FlightAware Approximate
04:21PM 43.0411 -83.7874 169° South  Level FlightAware Approximate
04:22PM 43.0048 -83.7779 169° South  Level FlightAware Approximate
04:22PM 42.9972 -83.7853 160° South 127 146 5,100  Level Cleveland Center
04:23PM 42.9684 -83.7684 169° South  Level FlightAware Approximate
04:23PM 42.9558 -83.7747 169° South 128 147 5,100  Level Cleveland Center
04:24PM 42.9320 -83.7590 169° South  Level FlightAware Approximate
04:24PM 42.9206 -83.7644 168° South 128 147 5,100  Level Cleveland Center
04:25PM 42.8957 -83.7495 169° South  Level FlightAware Approximate
04:25PM 42.8917 -83.7544 166° South 128 147 5,100  Level Cleveland Center
04:26PM 42.8593 -83.7401 169° South  Level FlightAware Approximate
04:26PM 42.8567 -83.7414 165° South 126 145 5,100  Level Cleveland Center
04:27PM 42.8234 -83.7284 160° South  Level FlightAware Approximate
04:27PM 42.8194 -83.7308 168° South 129 148 5,100  Level Cleveland Center
04:28PM 42.7842 -83.7206 168° South 129 148 5,100  Level Cleveland Center
04:29PM 42.7514 -83.7078 164° South 127 146 5,100  Level Cleveland Center
04:30PM 42.7100 -83.6944 167° South 128 147 5,100  Level Cleveland Center
04:31PM 42.6811 -83.6817 162° South 127 146 5,100  Level Cleveland Center
04:32PM 42.6439 -83.6714 169° South 127 146 5,100  Level Cleveland Center
04:33PM 42.6131 -83.6586 163° South 130 150 5,100 -240 Level Cleveland Center
04:34PM 42.5778 -83.6483 168° South 135 155 4,700 -480 Descending Cleveland Center
04:35PM 42.5364 -83.6322 164° South 143 165 4,200 -540 Descending Cleveland Center
04:36PM 42.4972 -83.6192 166° South 140 161 3,600 -540 Descending Cleveland Center
04:37PM 42.4600 -83.6061 165° South 128 147 3,100 -300 Descending Cleveland Center
04:39PM 42.4272 -83.5819 151° Southeast 122 140 3,000 -60 Descending Cleveland Center
04:40PM 42.3967 -83.5636 156° South 120 138 3,000 -240 Level Cleveland Center
04:40PM 42.3678 -83.5425 152° Southeast 121 139 2,600 -300 Descending Cleveland Center
04:42PM 42.3328 -83.5297 165° South 118 136 2,400 -240 Descending Cleveland Center
04:43PM 42.3039 -83.5172 162° South 104 120 2,100 -420 Descending Cleveland Center
04:44PM 42.2769 -83.5158 178° South 91 105 1,600 -540 Descending Cleveland Center
04:45PM 42.2539 -83.5119 173° South 91 105 1,100 -600 Descending Cleveland Center